Mescal, Arizona
Current Conditions -  °F | °C
As of 2:58 PM on Sunday 23 Nov 2014 (Local Time) from KDMA Reporting Station
Clear Clear  
Wind Chill: 64°   Ceiling: Unl
Heat Index: 64°   Visibility: 10mi
Dew Point: 27°   Wind: 15mph
Humidity: 24%   Direction: 320°NW
Pressure: 30.02"   Gusts: NA
Location:  32.1865°N, 110.265°W
Report Text: KDMA 232158Z AUTO 32013KT 10SM CLR 18/M03 A3002 RMK AO2 SLP147 T01801027 $
Loading
Personal Weather Stations






























Interactive Weather Map New forecast layout! Learn more

10-Day Weather Forecast

Advertisements
Track Severe Weather on mobile